createdAt,value
2023-04-16T00:02:27.518Z,8.17
2023-04-16T00:04:55.224Z,7.90
2023-04-16T00:07:23.446Z,7.94
2023-04-16T00:09:51.179Z,7.88
2023-04-16T00:12:18.879Z,7.91
2023-04-16T00:14:46.412Z,8.05
2023-04-16T00:17:15.686Z,8.08
2023-04-16T00:19:43.030Z,8.17
2023-04-16T00:22:11.282Z,8.05
2023-04-16T00:24:38.432Z,7.91
2023-04-16T00:27:06.957Z,8.06
2023-04-16T00:29:34.395Z,8.16
2023-04-16T00:32:05.062Z,8.18
2023-04-16T00:34:33.999Z,8.05
2023-04-16T00:37:01.826Z,7.99
2023-04-16T00:39:29.366Z,7.79
2023-04-16T00:41:57.735Z,7.79
2023-04-16T00:44:25.203Z,7.70
2023-04-16T00:46:53.685Z,7.78
2023-04-16T00:49:21.187Z,7.71
2023-04-16T00:51:50.871Z,7.74
2023-04-16T00:54:19.396Z,7.73
2023-04-16T00:56:47.511Z,7.80
2023-04-16T00:59:15.187Z,7.90
2023-04-16T01:01:43.047Z,7.88
2023-04-16T01:04:10.641Z,7.69
2023-04-16T01:06:38.631Z,7.81
2023-04-16T01:09:07.746Z,7.67
2023-04-16T01:11:35.670Z,7.57
2023-04-16T01:14:03.168Z,7.65
2023-04-16T01:16:31.231Z,7.86
2023-04-16T01:18:58.670Z,7.88
2023-04-16T01:21:27.923Z,7.80
2023-04-16T01:23:55.294Z,7.93
2023-04-16T01:26:23.118Z,7.90
2023-04-16T01:28:50.875Z,8.01
2023-04-16T01:31:18.747Z,7.97
2023-04-16T01:33:46.237Z,7.94
2023-04-16T01:36:13.993Z,7.87
2023-04-16T01:38:42.757Z,7.88
2023-04-16T01:41:10.636Z,7.97
2023-04-16T01:43:40.047Z,7.92
2023-04-16T01:46:18.099Z,7.96
2023-04-16T01:48:45.686Z,7.76
2023-04-16T01:51:13.609Z,7.85
2023-04-16T01:53:42.425Z,7.87
2023-04-16T01:56:10.190Z,7.85
2023-04-16T01:58:37.597Z,7.90
2023-04-16T02:01:05.669Z,7.92
2023-04-16T02:03:33.383Z,8.05
2023-04-16T02:06:01.275Z,8.02
2023-04-16T02:08:28.722Z,7.94
2023-04-16T02:10:58.497Z,7.96
2023-04-16T02:13:26.011Z,7.88
2023-04-16T02:15:54.028Z,7.95
2023-04-16T02:18:21.720Z,7.93
2023-04-16T02:20:49.587Z,7.93
2023-04-16T02:23:16.986Z,7.86
2023-04-16T02:25:46.006Z,7.95
2023-04-16T02:28:17.820Z,8.00
2023-04-16T02:30:45.733Z,8.06
2023-04-16T02:33:13.317Z,8.03
2023-04-16T02:35:41.379Z,8.08
2023-04-16T02:38:08.840Z,8.05
2023-04-16T02:40:36.663Z,8.10
2023-04-16T02:43:04.044Z,8.13
2023-04-16T02:45:33.345Z,8.12
2023-04-16T02:48:00.810Z,8.07
2023-04-16T02:50:28.513Z,8.04
2023-04-16T02:52:55.907Z,7.93
2023-04-16T02:55:23.711Z,7.85
2023-04-16T02:57:51.106Z,7.81
2023-04-16T03:00:19.657Z,7.81
2023-04-16T03:02:48.659Z,7.91
2023-04-16T03:05:16.714Z,7.77
2023-04-16T03:07:43.939Z,7.67
2023-04-16T03:10:12.091Z,7.55
2023-04-16T03:12:39.529Z,7.58
2023-04-16T03:15:08.073Z,7.68
2023-04-16T03:17:35.504Z,7.65
2023-04-16T03:20:05.905Z,7.58
2023-04-16T03:22:33.401Z,7.60
2023-04-16T03:25:01.220Z,7.50
2023-04-16T03:27:28.590Z,7.55
2023-04-16T03:29:56.437Z,7.41
2023-04-16T03:32:23.851Z,7.46
2023-04-16T03:34:51.592Z,7.55
2023-04-16T03:37:20.474Z,7.80
2023-04-16T03:39:48.357Z,7.73
2023-04-16T03:42:15.920Z,7.73
2023-04-16T03:44:43.897Z,7.77
2023-04-16T03:47:11.312Z,7.84
2023-04-16T03:49:39.150Z,7.80
2023-04-16T03:52:06.606Z,7.83
2023-04-16T03:54:35.953Z,7.76
2023-04-16T03:57:03.510Z,7.65
2023-04-16T03:59:31.608Z,7.66
2023-04-16T04:01:59.075Z,7.63
2023-04-16T04:04:26.978Z,7.54
2023-04-16T04:06:54.421Z,7.53
2023-04-16T04:09:22.118Z,7.58
2023-04-16T04:11:51.126Z,7.59
2023-04-16T04:14:18.910Z,7.57
2023-04-16T04:16:46.275Z,7.71
2023-04-16T04:19:13.991Z,7.82
2023-04-16T04:21:41.435Z,7.81
2023-04-16T04:24:09.189Z,7.86
2023-04-16T04:26:36.603Z,7.79
2023-04-16T04:29:05.828Z,8.00
2023-04-16T04:31:33.260Z,8.18
2023-04-16T04:34:01.044Z,8.02
2023-04-16T04:36:28.674Z,7.88
2023-04-16T04:38:56.629Z,7.92
2023-04-16T04:41:24.363Z,7.80
2023-04-16T04:43:52.374Z,7.94
2023-04-16T04:46:21.353Z,7.89
2023-04-16T04:48:49.239Z,7.72
2023-04-16T04:51:16.560Z,7.80
2023-04-16T04:53:44.388Z,7.85
2023-04-16T04:56:13.044Z,7.88
2023-04-16T04:58:41.474Z,7.87
2023-04-16T05:01:08.896Z,7.80
2023-04-16T05:03:38.431Z,7.81
2023-04-16T05:06:06.899Z,7.88
2023-04-16T05:08:34.535Z,8.01
2023-04-16T05:11:02.385Z,7.95
2023-04-16T05:13:30.073Z,7.90
2023-04-16T05:15:57.499Z,7.87
2023-04-16T05:18:25.395Z,7.73
2023-04-16T05:20:54.273Z,7.77
2023-04-16T05:23:22.382Z,7.88
2023-04-16T05:25:49.780Z,7.90
2023-04-16T05:28:17.533Z,7.90
2023-04-16T05:30:44.965Z,7.82
2023-04-16T05:33:12.973Z,7.79
2023-04-16T05:35:40.416Z,7.78
2023-04-16T05:38:09.628Z,7.85
2023-04-16T05:40:37.085Z,7.72
2023-04-16T05:43:04.867Z,7.77
2023-04-16T05:45:32.067Z,7.92
2023-04-16T05:47:59.983Z,8.07
2023-04-16T05:50:27.547Z,8.15
2023-04-16T05:52:55.290Z,8.33
2023-04-16T05:55:24.252Z,8.43
2023-04-16T05:57:52.119Z,8.54
2023-04-16T06:00:19.637Z,8.30
2023-04-16T06:02:47.611Z,8.43
2023-04-16T06:05:15.148Z,8.42
2023-04-16T06:07:43.035Z,8.48
2023-04-16T06:10:11.158Z,8.57
2023-04-16T06:12:40.351Z,8.54
2023-04-16T06:15:09.177Z,8.62
2023-04-16T06:17:37.005Z,8.64
2023-04-16T06:20:05.024Z,8.48
2023-04-16T06:22:32.981Z,8.29
2023-04-16T06:25:00.774Z,8.43
2023-04-16T06:27:28.789Z,8.63
2023-04-16T06:29:57.969Z,8.86
2023-04-16T06:32:25.853Z,8.90
2023-04-16T06:34:53.436Z,8.80
2023-04-16T06:37:21.122Z,8.84
2023-04-16T06:39:48.323Z,9.17
2023-04-16T06:42:16.453Z,9.57
2023-04-16T06:44:43.772Z,9.56
2023-04-16T06:47:12.941Z,9.61
2023-04-16T06:49:40.728Z,9.72
2023-04-16T06:52:08.501Z,9.86
2023-04-16T06:54:36.146Z,9.91
2023-04-16T06:57:04.315Z,10.25
2023-04-16T06:59:31.986Z,10.29
2023-04-16T07:01:59.847Z,10.13
2023-04-16T07:04:28.865Z,9.99
2023-04-16T07:06:57.001Z,10.04
2023-04-16T07:09:24.301Z,9.98
2023-04-16T07:11:52.044Z,10.02
2023-04-16T07:14:19.457Z,10.34
2023-04-16T07:16:47.572Z,10.22
2023-04-16T07:19:15.112Z,10.18
2023-04-16T07:21:44.515Z,9.93
2023-04-16T07:24:12.295Z,9.85
2023-04-16T07:26:40.144Z,9.96
2023-04-16T07:29:07.749Z,9.96
2023-04-16T07:31:35.788Z,9.93
2023-04-16T07:34:03.378Z,10.11
2023-04-16T07:36:31.132Z,10.11
2023-04-16T07:39:00.039Z,10.33
2023-04-16T07:41:28.263Z,10.39
2023-04-16T07:43:55.826Z,10.46
2023-04-16T07:46:24.977Z,10.35
2023-04-16T07:48:54.073Z,10.59
2023-04-16T07:51:23.623Z,10.66
2023-04-16T07:53:51.005Z,10.83
2023-04-16T07:56:20.478Z,10.84
2023-04-16T07:58:47.888Z,10.76
2023-04-16T08:01:15.656Z,10.81
2023-04-16T08:03:43.512Z,11.17
2023-04-16T08:06:11.604Z,11.32
2023-04-16T08:08:39.017Z,11.46
2023-04-16T08:11:06.975Z,11.45
2023-04-16T08:13:35.876Z,11.55
2023-04-16T08:16:04.172Z,11.55
2023-04-16T08:18:31.731Z,11.68
2023-04-16T08:20:59.413Z,11.68
2023-04-16T08:23:26.930Z,11.70
2023-04-16T08:25:55.141Z,11.65
2023-04-16T08:28:22.453Z,11.82
2023-04-16T08:30:52.031Z,12.03
2023-04-16T08:33:19.565Z,12.09
2023-04-16T08:35:47.416Z,12.02
2023-04-16T08:38:14.960Z,11.99
2023-04-16T08:40:43.833Z,12.15
2023-04-16T08:43:13.570Z,12.30
2023-04-16T08:45:42.043Z,12.33
2023-04-16T08:48:12.045Z,12.38
2023-04-16T08:50:41.298Z,12.36
2023-04-16T08:53:15.187Z,12.20
2023-04-16T08:55:48.135Z,12.35
2023-04-16T08:58:18.678Z,12.49
2023-04-16T09:00:48.580Z,12.36
2023-04-16T09:03:17.939Z,12.51
2023-04-16T09:05:47.164Z,12.77
2023-04-16T09:08:14.908Z,13.02
2023-04-16T09:10:43.598Z,13.32
2023-04-16T09:13:11.083Z,13.41
2023-04-16T09:15:40.010Z,13.58
2023-04-16T09:18:07.728Z,13.86
2023-04-16T09:20:36.932Z,14.26
2023-04-16T09:23:04.446Z,14.50
2023-04-16T09:25:33.872Z,14.76
2023-04-16T09:28:01.439Z,14.97
2023-04-16T09:30:29.317Z,15.48
2023-04-16T09:33:15.420Z,15.90
2023-04-16T09:35:48.857Z,16.11
2023-04-16T09:38:17.131Z,16.36
2023-04-16T09:40:45.257Z,16.51
2023-04-16T09:43:14.091Z,16.93
2023-04-16T09:45:49.463Z,16.99
2023-04-16T09:48:27.873Z,16.92
2023-04-16T09:50:57.301Z,17.19
2023-04-16T09:53:25.377Z,17.76
2023-04-16T09:55:53.134Z,17.62
2023-04-16T09:58:20.523Z,17.97
2023-04-16T10:00:48.279Z,17.85
2023-04-16T10:03:15.699Z,18.16
2023-04-16T10:05:43.674Z,18.02
2023-04-16T10:08:16.655Z,18.04
2023-04-16T10:10:45.141Z,18.08
2023-04-16T10:13:12.825Z,18.10
2023-04-16T10:15:41.464Z,18.31
2023-04-16T10:18:09.662Z,18.22
2023-04-16T10:20:37.872Z,17.72
2023-04-16T10:23:06.418Z,17.78
2023-04-16T10:25:35.743Z,18.17
2023-04-16T10:28:03.524Z,18.48
2023-04-16T10:30:31.577Z,18.79
2023-04-16T10:33:00.686Z,18.98
2023-04-16T10:35:28.605Z,19.13
2023-04-16T10:37:57.521Z,18.50
2023-04-16T10:40:26.855Z,18.05
2023-04-16T10:42:56.874Z,18.06
2023-04-16T10:45:31.152Z,17.89
2023-04-16T10:47:58.801Z,17.78
2023-04-16T10:50:35.277Z,18.05
2023-04-16T10:53:17.908Z,17.99
2023-04-16T10:56:09.987Z,18.05
2023-04-16T10:58:38.836Z,17.71
2023-04-16T11:01:13.121Z,17.63
2023-04-16T11:03:46.620Z,17.86
2023-04-16T11:06:15.534Z,18.35
2023-04-16T11:08:53.978Z,18.81
2023-04-16T11:11:22.937Z,19.49
2023-04-16T11:13:55.913Z,19.95
2023-04-16T11:16:25.391Z,19.81
2023-04-16T11:18:53.949Z,20.20
2023-04-16T11:21:23.937Z,20.44
2023-04-16T11:23:53.551Z,20.48
2023-04-16T11:26:24.025Z,20.75
2023-04-16T11:28:54.379Z,21.17
2023-04-16T11:31:22.254Z,21.48
2023-04-16T11:33:49.729Z,21.77
2023-04-16T11:36:17.627Z,21.95
2023-04-16T11:38:45.643Z,21.78
2023-04-16T11:41:19.985Z,22.06
2023-04-16T11:43:47.323Z,22.26
2023-04-16T11:46:24.514Z,21.78
2023-04-16T11:48:55.472Z,22.02
2023-04-16T11:51:23.709Z,21.71
2023-04-16T11:53:52.044Z,21.79
2023-04-16T11:56:27.308Z,21.30
2023-04-16T11:59:08.268Z,21.62
2023-04-16T12:01:39.126Z,21.84
2023-04-16T12:04:07.471Z,21.92
2023-04-16T12:06:35.647Z,22.25
2023-04-16T12:09:24.155Z,22.54
2023-04-16T12:11:51.941Z,22.59
2023-04-16T12:14:21.036Z,22.84
2023-04-16T12:16:50.237Z,22.77
2023-04-16T12:19:18.336Z,22.90
2023-04-16T12:21:51.193Z,23.03
2023-04-16T12:24:19.390Z,22.92
2023-04-16T12:26:48.572Z,22.95
2023-04-16T12:29:17.381Z,22.75
2023-04-16T12:31:45.777Z,22.65
2023-04-16T12:34:14.978Z,22.51
2023-04-16T12:36:43.529Z,22.55
2023-04-16T12:39:11.244Z,22.62
2023-04-16T12:41:40.182Z,22.72
2023-04-16T12:44:09.296Z,23.11
2023-04-16T12:46:36.953Z,23.23
2023-04-16T12:49:04.396Z,23.41
2023-04-16T12:51:34.701Z,23.79
2023-04-16T12:54:03.100Z,23.95
2023-04-16T12:56:31.663Z,24.06
2023-04-16T12:58:58.982Z,23.65
2023-04-16T13:01:26.976Z,23.58
2023-04-16T13:03:54.549Z,23.58
2023-04-16T13:06:22.700Z,23.86
2023-04-16T13:08:51.572Z,23.92
2023-04-16T13:11:19.301Z,24.09
2023-04-16T13:13:46.665Z,23.94
2023-04-16T13:16:14.538Z,23.74
2023-04-16T13:18:41.828Z,23.58
2023-04-16T13:21:09.669Z,23.74
2023-04-16T13:23:37.084Z,23.86
2023-04-16T13:26:06.271Z,24.05
2023-04-16T13:28:33.869Z,23.26
2023-04-16T13:31:04.267Z,22.66
2023-04-16T13:33:33.089Z,23.16
2023-04-16T13:36:00.916Z,23.60
2023-04-16T13:38:28.454Z,23.91
2023-04-16T13:40:56.226Z,23.27
2023-04-16T13:43:24.890Z,23.13
2023-04-16T13:45:52.582Z,23.13
2023-04-16T13:48:20.049Z,23.29
2023-04-16T13:50:47.785Z,23.49
2023-04-16T13:53:15.155Z,23.92
2023-04-16T13:55:43.182Z,23.92
2023-04-16T13:58:10.655Z,24.12
2023-04-16T14:00:39.663Z,24.38
2023-04-16T14:03:07.281Z,24.25
2023-04-16T14:05:35.171Z,23.80
2023-04-16T14:08:02.640Z,23.94
2023-04-16T14:10:31.655Z,23.63
2023-04-16T14:12:59.150Z,23.84
2023-04-16T14:15:26.882Z,23.85
2023-04-16T14:17:55.743Z,24.04
2023-04-16T14:20:23.642Z,23.91
2023-04-16T14:22:50.943Z,23.43
2023-04-16T14:25:18.720Z,23.22
2023-04-16T14:27:46.204Z,23.12
2023-04-16T14:30:14.226Z,23.17
2023-04-16T14:32:41.547Z,23.03
2023-04-16T14:35:11.018Z,22.91
2023-04-16T14:37:38.388Z,23.05
2023-04-16T14:40:07.462Z,23.20
2023-04-16T14:42:35.017Z,22.87
2023-04-16T14:45:03.306Z,23.16
2023-04-16T14:47:30.781Z,23.42
2023-04-16T14:49:58.675Z,23.58
2023-04-16T14:52:27.701Z,23.76
2023-04-16T14:54:55.565Z,23.66
2023-04-16T14:57:22.967Z,23.69
2023-04-16T14:59:50.798Z,23.83
2023-04-16T15:02:18.287Z,24.05
2023-04-16T15:04:46.222Z,24.02
2023-04-16T15:07:13.706Z,23.93
2023-04-16T15:09:42.832Z,23.62
2023-04-16T15:12:10.086Z,23.68
2023-04-16T15:14:38.034Z,23.86
2023-04-16T15:17:05.555Z,23.70
2023-04-16T15:19:33.396Z,23.63
2023-04-16T15:22:01.067Z,23.53
2023-04-16T15:24:28.872Z,23.60
2023-04-16T15:26:57.666Z,23.41
2023-04-16T15:29:25.501Z,23.34
2023-04-16T15:31:52.879Z,23.25
2023-04-16T15:34:20.616Z,23.00
2023-04-16T15:36:47.967Z,23.10
2023-04-16T15:39:15.691Z,23.36
2023-04-16T15:41:57.390Z,23.49
2023-04-16T15:44:30.378Z,23.38
2023-04-16T15:46:57.845Z,23.17
2023-04-16T15:49:25.783Z,23.04
2023-04-16T15:51:53.282Z,22.62
2023-04-16T15:54:21.093Z,22.37
2023-04-16T15:56:48.370Z,22.23
2023-04-16T15:59:16.078Z,22.14
2023-04-16T16:01:45.083Z,22.00
2023-04-16T16:04:13.016Z,21.73
2023-04-16T16:06:40.506Z,21.71
2023-04-16T16:09:08.453Z,21.77
2023-04-16T16:11:37.012Z,21.73
2023-04-16T16:14:04.853Z,21.63
2023-04-16T16:16:32.332Z,21.65
2023-04-16T16:19:01.627Z,21.54
2023-04-16T16:21:30.168Z,20.54
2023-04-16T16:23:57.914Z,19.64
2023-04-16T16:26:25.247Z,18.67
2023-04-16T16:28:52.941Z,18.59
2023-04-16T16:31:20.277Z,18.22
2023-04-16T16:33:48.063Z,18.07
2023-04-16T16:36:16.886Z,17.54
2023-04-16T16:38:44.675Z,17.78
2023-04-16T16:41:12.061Z,17.96
2023-04-16T16:43:39.783Z,17.31
2023-04-16T16:46:07.121Z,17.13
2023-04-16T16:48:34.954Z,16.86
2023-04-16T16:51:02.250Z,15.55
2023-04-16T16:53:31.363Z,14.55
2023-04-16T16:55:58.667Z,13.81
2023-04-16T16:58:26.348Z,13.22
2023-04-16T17:00:53.652Z,12.97
2023-04-16T17:03:21.500Z,13.11
2023-04-16T17:05:49.025Z,12.80
2023-04-16T17:08:16.986Z,12.74
2023-04-16T17:10:45.747Z,13.12
2023-04-16T17:13:13.625Z,13.31
2023-04-16T17:15:41.556Z,13.30
2023-04-16T17:18:09.239Z,13.73
2023-04-16T17:20:36.664Z,14.14
2023-04-16T17:23:04.493Z,14.45
2023-04-16T17:25:32.133Z,14.69
2023-04-16T17:28:01.317Z,15.04
2023-04-16T17:30:30.593Z,15.10
2023-04-16T17:32:58.344Z,15.09
2023-04-16T17:35:25.936Z,15.12
2023-04-16T17:37:53.788Z,15.16
2023-04-16T17:40:21.241Z,15.28
2023-04-16T17:42:49.328Z,15.36
2023-04-16T17:45:18.302Z,15.60
2023-04-16T17:47:46.193Z,15.64
2023-04-16T17:50:13.636Z,15.73
2023-04-16T17:52:41.477Z,15.70
2023-04-16T17:55:10.908Z,15.54
2023-04-16T17:57:38.785Z,15.35
2023-04-16T18:00:07.263Z,15.39
2023-04-16T18:02:36.587Z,15.33
2023-04-16T18:05:04.742Z,15.23
2023-04-16T18:07:32.616Z,15.14
2023-04-16T18:10:00.178Z,15.05
2023-04-16T18:12:27.993Z,14.86
2023-04-16T18:14:55.313Z,14.82
2023-04-16T18:17:23.133Z,14.82
2023-04-16T18:19:51.938Z,14.50
2023-04-16T18:22:19.640Z,14.29
2023-04-16T18:24:46.988Z,14.21
2023-04-16T18:27:14.783Z,14.02
2023-04-16T18:29:44.102Z,14.16
2023-04-16T18:32:12.939Z,14.14
2023-04-16T18:34:40.419Z,14.18
2023-04-16T18:37:09.836Z,14.22
2023-04-16T18:39:37.233Z,13.99
2023-04-16T18:42:05.235Z,13.84
2023-04-16T18:44:32.756Z,13.89
2023-04-16T18:47:00.526Z,13.89
2023-04-16T18:49:28.117Z,13.94
2023-04-16T18:51:55.919Z,13.90
2023-04-16T18:54:25.017Z,13.96
2023-04-16T18:56:52.778Z,13.73
2023-04-16T18:59:20.316Z,13.78
2023-04-16T19:01:48.149Z,13.83
2023-04-16T19:04:15.625Z,14.00
2023-04-16T19:06:43.303Z,14.07
2023-04-16T19:09:11.659Z,13.97
2023-04-16T19:11:41.203Z,13.94
2023-04-16T19:14:08.595Z,14.00
2023-04-16T19:16:36.500Z,13.90
2023-04-16T19:19:03.883Z,13.84
2023-04-16T19:21:31.800Z,13.82
2023-04-16T19:23:59.222Z,13.79
2023-04-16T19:26:26.976Z,13.56
2023-04-16T19:28:55.860Z,13.34
2023-04-16T19:31:23.809Z,13.16
2023-04-16T19:33:51.140Z,13.28
2023-04-16T19:36:18.962Z,13.25
2023-04-16T19:38:46.346Z,13.07
2023-04-16T19:41:14.030Z,13.13
2023-04-16T19:43:41.253Z,13.20
2023-04-16T19:46:10.467Z,13.12
2023-04-16T19:48:37.809Z,13.04
2023-04-16T19:51:05.732Z,13.09
2023-04-16T19:53:33.088Z,13.06
2023-04-16T19:56:00.794Z,13.09
2023-04-16T19:58:28.192Z,13.06
2023-04-16T20:00:55.956Z,13.02
2023-04-16T20:03:24.836Z,13.01
2023-04-16T20:05:52.846Z,12.94
2023-04-16T20:08:20.236Z,12.95
2023-04-16T20:10:48.020Z,13.03
2023-04-16T20:13:17.952Z,12.96
2023-04-16T20:15:46.594Z,12.96
2023-04-16T20:18:13.959Z,13.03
2023-04-16T20:20:43.232Z,13.09
2023-04-16T20:23:10.564Z,12.78
2023-04-16T20:25:41.249Z,12.83
2023-04-16T20:28:08.663Z,12.87
2023-04-16T20:30:36.527Z,12.89
2023-04-16T20:33:04.066Z,12.79
2023-04-16T20:35:31.796Z,12.87
2023-04-16T20:38:00.720Z,12.70
2023-04-16T20:40:28.421Z,12.74
2023-04-16T20:42:55.801Z,12.82
2023-04-16T20:45:23.599Z,12.74
2023-04-16T20:47:51.149Z,12.70
2023-04-16T20:50:19.022Z,12.59
2023-04-16T20:52:46.425Z,12.39
2023-04-16T20:55:15.588Z,12.29
2023-04-16T20:57:42.977Z,12.39
2023-04-16T21:00:11.575Z,12.24
2023-04-16T21:02:39.093Z,12.26
2023-04-16T21:05:07.620Z,12.36
2023-04-16T21:07:35.010Z,12.24
2023-04-16T21:10:02.789Z,12.37
2023-04-16T21:12:31.452Z,12.29
2023-04-16T21:14:59.163Z,12.34
2023-04-16T21:17:26.591Z,12.32
2023-04-16T21:19:54.413Z,12.33
2023-04-16T21:22:21.800Z,12.16
2023-04-16T21:24:49.579Z,12.23
2023-04-16T21:27:17.014Z,12.16
2023-04-16T21:29:46.272Z,12.10
2023-04-16T21:32:13.645Z,12.06
2023-04-16T21:34:41.358Z,11.88
2023-04-16T21:37:13.187Z,11.96
2023-04-16T21:39:40.658Z,11.97
2023-04-16T21:42:08.045Z,11.98
2023-04-16T21:44:35.869Z,11.97
2023-04-16T21:47:05.065Z,11.93
2023-04-16T21:49:32.900Z,11.82
2023-04-16T21:52:00.262Z,11.83
2023-04-16T21:54:28.045Z,11.79
2023-04-16T21:56:55.396Z,11.83
2023-04-16T21:59:22.996Z,11.75
2023-04-16T22:01:50.523Z,11.64
2023-04-16T22:04:19.771Z,11.64
2023-04-16T22:06:47.203Z,11.74
2023-04-16T22:09:14.984Z,11.68
2023-04-16T22:11:42.306Z,11.53
2023-04-16T22:14:10.081Z,11.19
2023-04-16T22:16:37.513Z,11.02
2023-04-16T22:19:05.255Z,11.08
2023-04-16T22:21:34.111Z,11.24
2023-04-16T22:24:01.943Z,11.43
2023-04-16T22:26:29.273Z,11.41
2023-04-16T22:28:56.905Z,11.37
2023-04-16T22:31:24.338Z,11.45
2023-04-16T22:33:52.146Z,11.11
2023-04-16T22:36:19.466Z,10.94
2023-04-16T22:38:48.691Z,10.70
2023-04-16T22:41:16.165Z,10.66
2023-04-16T22:43:43.832Z,10.75
2023-04-16T22:46:11.270Z,10.73
2023-04-16T22:48:39.497Z,10.84
2023-04-16T22:51:08.715Z,10.75
2023-04-16T22:53:36.451Z,10.54
2023-04-16T22:56:05.842Z,10.51
2023-04-16T22:58:33.808Z,10.65
2023-04-16T23:01:01.039Z,10.69
2023-04-16T23:03:28.881Z,10.77
2023-04-16T23:05:56.323Z,10.67
2023-04-16T23:08:24.525Z,10.83
2023-04-16T23:10:51.914Z,10.89
2023-04-16T23:13:21.029Z,11.00
2023-04-16T23:15:48.406Z,10.83
2023-04-16T23:18:16.174Z,10.49
2023-04-16T23:20:43.419Z,10.48
2023-04-16T23:23:11.087Z,10.29
2023-04-16T23:25:41.072Z,10.54
2023-04-16T23:28:08.844Z,10.39
2023-04-16T23:30:37.768Z,10.50
2023-04-16T23:33:05.575Z,10.52
2023-04-16T23:35:32.954Z,10.56
2023-04-16T23:38:00.742Z,10.48
2023-04-16T23:40:28.143Z,10.50
2023-04-16T23:42:55.811Z,10.68
2023-04-16T23:45:23.187Z,10.61
2023-04-16T23:47:52.561Z,10.48
2023-04-16T23:50:20.048Z,10.36
2023-04-16T23:52:47.682Z,10.33
2023-04-16T23:55:14.956Z,10.17
2023-04-16T23:57:42.733Z,10.34
